Time;durP1;ratioP1;P1;durP2;ratioP2;P2;SDS_P1;SDS_P2;PMS_P1;PMS_P2;Temp;Humidity;BMP_temperature;BMP_pressure;BME280_temperature;BME280_humidity;BME280_pressure;Samples;Min_cycle;Max_cycle;Signal;HPM_P1;HPM_P2
2022/02/22 00:00:15;;;;;;;9.60;1.70;;;7.70;70.70;;;;;;5048115;28;21326;-48
2022/02/22 00:02:43;;;;;;;4.70;2.53;;;7.70;71.30;;;;;;5048489;28;20528;-48
2022/02/22 00:05:12;;;;;;;7.90;1.77;;;7.70;71.30;;;;;;5047982;28;20465;-48
2022/02/22 00:07:39;;;;;;;6.27;1.80;;;7.80;70.70;;;;;;5048106;28;20466;-48
2022/02/22 00:10:08;;;;;;;8.20;1.90;;;7.80;70.60;;;;;;5047378;28;20498;-48
2022/02/22 00:12:36;;;;;;;5.43;1.73;;;7.80;70.50;;;;;;5048416;28;20465;-48
2022/02/22 00:15:03;;;;;;;9.53;2.70;;;7.80;70.00;;;;;;5031188;28;20833;-47
2022/02/22 00:17:33;;;;;;;6.40;1.60;;;7.80;69.70;;;;;;5051685;28;20462;-48
2022/02/22 00:20:01;;;;;;;11.10;2.30;;;7.80;69.10;;;;;;5052169;28;20517;-47
2022/02/22 00:22:28;;;;;;;4.30;1.90;;;7.80;69.10;;;;;;5037197;28;20493;-48
2022/02/22 00:24:55;;;;;;;6.23;2.23;;;7.80;69.30;;;;;;5052820;28;20454;-48
2022/02/22 00:27:22;;;;;;;4.90;1.77;;;7.80;69.30;;;;;;5040429;28;20570;-48
2022/02/22 00:29:48;;;;;;;8.43;2.50;;;7.80;69.40;;;;;;5051758;28;21247;-48
2022/02/22 00:32:15;;;;;;;9.73;2.30;;;7.80;69.70;;;;;;5035308;28;20465;-48
2022/02/22 00:34:42;;;;;;;8.93;2.90;;;7.80;69.40;;;;;;5033985;28;20973;-47
2022/02/22 00:37:09;;;;;;;9.77;2.00;;;7.70;69.00;;;;;;5052051;28;20466;-47
2022/02/22 00:39:36;;;;;;;5.97;2.00;;;7.70;69.40;;;;;;5052367;28;20997;-47
2022/02/22 00:42:03;;;;;;;9.37;2.10;;;7.70;69.30;;;;;;5034971;28;20556;-48
2022/02/22 00:44:30;;;;;;;5.87;2.00;;;7.70;69.50;;;;;;5036417;28;20940;-47
2022/02/22 00:46:56;;;;;;;8.90;3.83;;;7.70;69.30;;;;;;5034647;28;20482;-47
2022/02/22 00:49:23;;;;;;;9.07;1.97;;;7.70;69.60;;;;;;5038720;28;20519;-48
2022/02/22 00:51:51;;;;;;;6.07;1.37;;;7.70;69.00;;;;;;5054474;28;21058;-48
2022/02/22 00:54:18;;;;;;;3.33;1.60;;;7.70;69.10;;;;;;5033553;28;20475;-48
2022/02/22 00:56:45;;;;;;;7.10;1.80;;;7.70;69.30;;;;;;5052875;28;20455;-48
2022/02/22 00:59:12;;;;;;;8.63;2.10;;;7.70;69.90;;;;;;5054443;28;20489;-48
2022/02/22 01:01:38;;;;;;;4.93;1.53;;;7.70;69.50;;;;;;5060597;28;20463;-47
2022/02/22 01:04:06;;;;;;;8.90;2.43;;;7.70;69.30;;;;;;5054249;28;20543;-48
2022/02/22 01:06:33;;;;;;;6.47;2.30;;;7.70;69.40;;;;;;5050683;28;20468;-48
2022/02/22 01:09:00;;;;;;;5.40;2.10;;;7.70;69.30;;;;;;5031770;28;20463;-48
2022/02/22 01:11:28;;;;;;;9.13;2.17;;;7.70;69.00;;;;;;5049794;28;20457;-47
2022/02/22 01:13:58;;;;;;;8.60;2.00;;;7.60;69.10;;;;;;5055441;28;20490;-47
2022/02/22 01:16:24;;;;;;;9.53;2.27;;;7.70;69.30;;;;;;5050777;28;20462;-47
2022/02/22 01:18:52;;;;;;;4.57;1.90;;;7.70;69.10;;;;;;5036210;28;20457;-48
2022/02/22 01:21:18;;;;;;;10.27;3.23;;;7.60;69.60;;;;;;5049972;28;20466;-48
2022/02/22 01:23:45;;;;;;;6.67;2.20;;;7.60;70.30;;;;;;5051355;28;20589;-47
2022/02/22 01:26:12;;;;;;;5.93;1.50;;;7.60;70.10;;;;;;5038983;28;20461;-47
2022/02/22 01:28:39;;;;;;;9.10;2.17;;;7.60;70.60;;;;;;5049633;28;20462;-48
2022/02/22 01:31:06;;;;;;;5.87;1.93;;;7.60;70.60;;;;;;5054628;28;20524;-48
2022/02/22 01:33:32;;;;;;;10.33;2.33;;;7.50;70.30;;;;;;5052515;28;20465;-48
2022/02/22 01:35:59;;;;;;;9.37;2.60;;;7.50;70.00;;;;;;5053581;28;20546;-47
2022/02/22 01:38:26;;;;;;;13.97;2.37;;;7.50;69.60;;;;;;5034790;28;21031;-47
2022/02/22 01:40:55;;;;;;;10.97;1.90;;;7.50;70.50;;;;;;5052135;28;20457;-47
2022/02/22 01:43:22;;;;;;;6.57;2.10;;;7.50;69.90;;;;;;5052326;28;20570;-47
2022/02/22 01:45:49;;;;;;;3.80;1.67;;;7.50;69.90;;;;;;5053084;28;20462;-49
2022/02/22 01:48:16;;;;;;;5.07;1.57;;;7.50;70.30;;;;;;5044230;28;20509;-47
2022/02/22 01:50:42;;;;;;;4.50;2.27;;;7.50;69.60;;;;;;5035027;28;21074;-47
2022/02/22 01:53:09;;;;;;;6.23;1.87;;;7.50;69.60;;;;;;5032855;28;20454;-47
2022/02/22 01:55:38;;;;;;;5.40;2.40;;;7.50;69.50;;;;;;5053428;28;20497;-48
2022/02/22 01:58:05;;;;;;;3.83;1.73;;;7.50;69.80;;;;;;5047868;28;20453;-47
2022/02/22 02:00:31;;;;;;;6.00;1.63;;;7.50;70.50;;;;;;5033830;28;20467;-48
2022/02/22 02:02:59;;;;;;;10.77;2.30;;;7.50;70.40;;;;;;5033718;28;20877;-47
2022/02/22 02:05:26;;;;;;;9.13;2.20;;;7.60;70.10;;;;;;5049833;28;20468;-47
2022/02/22 02:07:53;;;;;;;3.10;1.80;;;7.60;70.10;;;;;;5051001;28;20451;-47
2022/02/22 02:10:20;;;;;;;15.50;2.40;;;7.60;70.00;;;;;;5051207;28;20588;-47
2022/02/22 02:12:47;;;;;;;8.43;1.80;;;7.60;70.00;;;;;;5050235;28;20467;-47
2022/02/22 02:15:14;;;;;;;9.60;2.23;;;7.50;70.10;;;;;;5043757;28;20954;-48
2022/02/22 02:17:41;;;;;;;3.90;1.90;;;7.50;70.10;;;;;;5048229;28;20494;-47
2022/02/22 02:20:09;;;;;;;5.53;2.23;;;7.50;70.10;;;;;;5048220;28;20460;-47
2022/02/22 02:22:36;;;;;;;9.63;2.40;;;7.50;69.80;;;;;;5046828;28;20463;-47
2022/02/22 02:25:04;;;;;;;7.40;2.53;;;7.50;69.80;;;;;;5031380;28;20896;-47
2022/02/22 02:27:34;;;;;;;7.53;2.27;;;7.40;69.50;;;;;;5047405;28;20462;-47
2022/02/22 02:30:01;;;;;;;8.57;2.30;;;7.40;69.60;;;;;;5050190;28;21029;-47
2022/02/22 02:32:29;;;;;;;8.57;2.03;;;7.40;69.40;;;;;;5048754;28;20455;-47
2022/02/22 02:34:56;;;;;;;7.07;2.00;;;7.40;69.30;;;;;;5050925;28;21006;-47
2022/02/22 02:37:23;;;;;;;10.23;2.10;;;7.40;69.30;;;;;;5045182;28;20466;-47
2022/02/22 02:39:50;;;;;;;5.43;2.03;;;7.40;68.20;;;;;;5032321;28;20497;-47
2022/02/22 02:42:18;;;;;;;8.50;2.50;;;7.30;68.60;;;;;;5031398;28;20461;-47
2022/02/22 02:44:47;;;;;;;8.00;2.10;;;7.40;67.90;;;;;;5056412;28;20458;-47
2022/02/22 02:47:15;;;;;;;12.77;2.40;;;7.30;67.90;;;;;;5047624;28;20489;-48
2022/02/22 02:49:43;;;;;;;7.77;3.60;;;7.30;67.50;;;;;;5046834;28;22100;-48
2022/02/22 02:52:10;;;;;;;6.03;2.00;;;7.30;67.90;;;;;;5047408;28;21277;-48
2022/02/22 02:54:37;;;;;;;13.30;3.20;;;7.30;68.10;;;;;;5031835;28;20450;-48
2022/02/22 02:57:05;;;;;;;9.30;2.50;;;7.30;68.60;;;;;;5054002;28;20564;-48
2022/02/22 02:59:31;;;;;;;7.27;2.10;;;7.30;68.50;;;;;;5049868;28;20979;-47
2022/02/22 03:01:58;;;;;;;10.33;3.73;;;7.30;68.40;;;;;;5054985;28;20462;-48
2022/02/22 03:04:27;;;;;;;8.70;3.43;;;7.30;68.50;;;;;;5049769;28;21039;-48
2022/02/22 03:06:54;;;;;;;10.00;1.93;;;7.20;69.20;;;;;;5050200;28;20465;-48
2022/02/22 03:09:21;;;;;;;4.53;1.87;;;7.20;69.30;;;;;;5035607;28;20486;-47
2022/02/22 03:11:50;;;;;;;8.90;2.70;;;7.20;69.30;;;;;;5034400;28;20466;-48
2022/02/22 03:14:18;;;;;;;10.13;2.40;;;7.20;68.80;;;;;;5049786;28;20860;-47
2022/02/22 03:16:44;;;;;;;7.87;3.17;;;7.20;69.00;;;;;;5048637;28;21047;-47
2022/02/22 03:19:12;;;;;;;7.50;3.13;;;7.20;69.00;;;;;;5032468;28;21079;-47
2022/02/22 03:21:38;;;;;;;5.97;2.40;;;7.20;69.20;;;;;;5031526;28;20963;-47
2022/02/22 03:24:05;;;;;;;7.00;2.47;;;7.20;69.40;;;;;;5044773;28;21122;-47
2022/02/22 03:26:34;;;;;;;10.67;2.33;;;7.10;69.50;;;;;;5050634;28;20568;-47
2022/02/22 03:29:01;;;;;;;6.87;2.53;;;7.10;70.10;;;;;;5053122;28;20463;-47
2022/02/22 03:31:29;;;;;;;12.87;2.50;;;7.10;70.00;;;;;;5050347;28;20563;-49
2022/02/22 03:33:57;;;;;;;4.90;1.93;;;7.10;70.10;;;;;;5051812;28;20461;-49
2022/02/22 03:36:25;;;;;;;9.50;2.20;;;7.10;69.90;;;;;;5053460;28;20463;-49
2022/02/22 03:38:52;;;;;;;8.57;2.20;;;7.10;70.00;;;;;;5054763;28;20493;-49
2022/02/22 03:41:19;;;;;;;9.47;2.00;;;7.10;69.90;;;;;;5053231;28;20453;-49
2022/02/22 03:43:46;;;;;;;6.47;2.90;;;7.10;69.80;;;;;;5031560;28;21365;-49
2022/02/22 03:46:13;;;;;;;8.03;3.13;;;7.10;69.80;;;;;;5050311;28;20482;-49
2022/02/22 03:48:39;;;;;;;7.10;2.50;;;7.00;69.80;;;;;;5052423;28;20807;-49
2022/02/22 03:51:06;;;;;;;6.43;1.70;;;7.00;70.10;;;;;;5056634;28;20486;-49
2022/02/22 03:53:33;;;;;;;3.90;2.30;;;7.00;69.90;;;;;;5044371;28;20467;-49
2022/02/22 03:56:00;;;;;;;8.53;2.10;;;7.00;70.30;;;;;;5057707;28;20450;-49
2022/02/22 03:58:27;;;;;;;5.57;1.53;;;7.00;70.40;;;;;;5041713;28;20518;-49
2022/02/22 04:00:54;;;;;;;13.80;2.83;;;7.00;70.30;;;;;;5057597;28;20464;-49
2022/02/22 04:03:20;;;;;;;7.37;1.80;;;6.90;70.70;;;;;;5056780;28;20468;-49
2022/02/22 04:05:47;;;;;;;4.97;2.07;;;6.90;70.50;;;;;;5039634;28;20477;-49
2022/02/22 04:08:14;;;;;;;9.03;2.47;;;6.90;70.20;;;;;;5058075;28;20570;-49
2022/02/22 04:10:41;;;;;;;10.80;2.90;;;6.90;70.10;;;;;;5038247;28;21054;-49
2022/02/22 04:13:08;;;;;;;9.00;2.00;;;6.90;70.10;;;;;;5052876;28;20536;-49
2022/02/22 04:15:36;;;;;;;8.13;2.53;;;6.90;69.60;;;;;;5054643;28;20946;-49
2022/02/22 04:18:03;;;;;;;9.60;2.07;;;6.90;69.70;;;;;;5040325;28;20543;-49
2022/02/22 04:20:30;;;;;;;8.77;2.50;;;6.90;69.70;;;;;;5054967;28;20538;-49
2022/02/22 04:22:56;;;;;;;3.27;1.90;;;6.90;70.40;;;;;;5054874;28;21130;-49
2022/02/22 04:25:23;;;;;;;5.70;3.67;;;6.90;69.50;;;;;;5058174;28;20477;-49
2022/02/22 04:27:51;;;;;;;6.10;2.27;;;6.90;69.60;;;;;;5058226;28;20468;-49
2022/02/22 04:30:18;;;;;;;5.67;2.10;;;6.90;70.00;;;;;;5051682;28;21017;-49
2022/02/22 04:32:46;;;;;;;8.70;3.17;;;6.90;68.70;;;;;;5057186;28;20464;-49
2022/02/22 04:35:12;;;;;;;9.87;2.90;;;6.90;68.60;;;;;;5055311;28;20465;-49
2022/02/22 04:37:39;;;;;;;7.63;3.40;;;6.80;68.70;;;;;;5038914;28;20528;-49
2022/02/22 04:40:07;;;;;;;8.77;2.90;;;6.80;69.30;;;;;;5037021;28;20462;-49
2022/02/22 04:42:34;;;;;;;7.57;2.30;;;6.80;69.50;;;;;;5056968;28;20465;-49
2022/02/22 04:45:01;;;;;;;16.20;2.70;;;6.80;70.00;;;;;;5031457;28;20537;-49
2022/02/22 04:47:28;;;;;;;7.63;2.80;;;6.90;69.00;;;;;;5054839;28;20866;-49
2022/02/22 04:49:54;;;;;;;8.00;2.00;;;6.90;68.50;;;;;;5055828;28;20853;-49
2022/02/22 04:52:22;;;;;;;13.73;2.53;;;6.90;68.50;;;;;;5040539;28;20459;-49
2022/02/22 04:54:48;;;;;;;3.63;1.80;;;6.90;68.30;;;;;;5056036;28;20545;-49
2022/02/22 04:57:15;;;;;;;10.80;2.50;;;6.90;68.60;;;;;;5050014;28;20460;-49
2022/02/22 04:59:42;;;;;;;9.10;2.13;;;6.90;68.90;;;;;;5057657;28;20537;-49
2022/02/22 05:02:09;;;;;;;8.70;2.33;;;6.90;68.70;;;;;;5055204;28;20454;-49
2022/02/22 05:04:35;;;;;;;12.77;2.30;;;6.90;68.90;;;;;;5054328;28;20507;-49
2022/02/22 05:07:02;;;;;;;11.33;2.60;;;6.90;68.70;;;;;;5058787;28;20478;-49
2022/02/22 05:09:29;;;;;;;4.33;2.70;;;6.90;68.70;;;;;;5054011;28;21263;-49
2022/02/22 05:11:56;;;;;;;13.43;3.73;;;6.90;68.20;;;;;;5035381;28;20486;-49
2022/02/22 05:14:23;;;;;;;10.50;1.83;;;6.90;68.10;;;;;;5056259;28;20955;-49
2022/02/22 05:16:49;;;;;;;8.40;2.10;;;6.90;68.30;;;;;;5052486;28;20473;-49
2022/02/22 05:19:17;;;;;;;12.87;2.97;;;6.90;68.90;;;;;;5036687;28;20835;-49
2022/02/22 05:21:44;;;;;;;8.30;2.60;;;6.90;69.20;;;;;;5055613;28;20839;-49
2022/02/22 05:24:11;;;;;;;10.40;2.70;;;6.90;69.30;;;;;;5053871;28;21006;-49
2022/02/22 05:26:38;;;;;;;8.47;1.97;;;6.90;70.20;;;;;;5053327;28;20560;-49
2022/02/22 05:29:06;;;;;;;5.13;2.63;;;6.90;69.90;;;;;;5056401;28;20466;-49
2022/02/22 05:31:33;;;;;;;9.20;2.70;;;6.90;70.00;;;;;;5056884;28;20490;-49
2022/02/22 05:34:00;;;;;;;9.03;2.50;;;6.90;70.00;;;;;;5039510;28;20507;-49
2022/02/22 05:36:27;;;;;;;8.33;2.60;;;7.00;70.60;;;;;;5050225;28;20454;-49
2022/02/22 05:38:54;;;;;;;9.13;2.50;;;7.00;70.70;;;;;;5052404;28;20486;-49
2022/02/22 05:41:21;;;;;;;9.03;2.53;;;7.00;70.60;;;;;;5051328;28;20508;-49
2022/02/22 05:43:49;;;;;;;7.60;2.20;;;7.00;70.00;;;;;;5056383;28;20458;-49
2022/02/22 05:46:17;;;;;;;14.63;1.80;;;7.00;70.00;;;;;;5036068;28;20553;-49
2022/02/22 05:48:44;;;;;;;16.37;3.03;;;7.00;70.30;;;;;;5037041;28;20473;-49
2022/02/22 05:51:12;;;;;;;8.57;2.13;;;6.90;70.70;;;;;;5050054;28;20547;-49
2022/02/22 05:53:40;;;;;;;4.80;1.90;;;6.90;70.50;;;;;;5055770;28;21037;-49
2022/02/22 05:56:07;;;;;;;12.77;3.00;;;6.90;71.10;;;;;;5052849;28;20466;-49
2022/02/22 05:58:35;;;;;;;3.50;2.00;;;6.90;70.80;;;;;;5052922;28;20534;-49
2022/02/22 06:01:01;;;;;;;10.70;3.20;;;6.80;71.10;;;;;;5049385;28;20450;-49
2022/02/22 06:03:28;;;;;;;8.03;2.40;;;6.80;71.20;;;;;;5037470;28;20450;-49
2022/02/22 06:05:55;;;;;;;7.60;1.70;;;6.80;71.20;;;;;;5036334;28;20981;-49
2022/02/22 06:08:22;;;;;;;6.57;1.70;;;6.80;70.90;;;;;;5055910;28;20541;-49
2022/02/22 06:10:49;;;;;;;7.60;2.27;;;6.70;71.30;;;;;;5051847;28;20486;-49
2022/02/22 06:13:18;;;;;;;6.73;3.20;;;6.70;71.00;;;;;;5051989;28;20469;-49
2022/02/22 06:15:45;;;;;;;7.03;2.67;;;6.70;71.00;;;;;;5058623;28;20540;-49
2022/02/22 06:18:12;;;;;;;8.60;2.87;;;6.60;71.20;;;;;;5038083;28;20541;-49
2022/02/22 06:20:42;;;;;;;7.10;2.07;;;6.60;71.30;;;;;;5038876;28;20550;-49
2022/02/22 06:23:09;;;;;;;10.50;2.90;;;6.50;71.50;;;;;;5057107;28;20462;-49
2022/02/22 06:25:36;;;;;;;5.70;2.27;;;6.50;71.80;;;;;;5054572;28;20453;-49
2022/02/22 06:28:03;;;;;;;6.80;2.63;;;6.50;71.60;;;;;;5051936;28;20462;-49
2022/02/22 06:30:34;;;;;;;8.63;3.33;;;6.50;72.00;;;;;;5054447;28;20513;-48
2022/02/22 06:33:01;;;;;;;6.80;2.40;;;6.40;72.00;;;;;;5053569;28;20758;-49
2022/02/22 06:35:28;;;;;;;10.23;2.70;;;6.40;72.00;;;;;;5052968;28;20450;-50
2022/02/22 06:37:55;;;;;;;7.47;2.47;;;6.40;72.50;;;;;;5041977;28;20542;-49
2022/02/22 06:40:22;;;;;;;14.07;2.80;;;6.40;72.30;;;;;;5055733;28;20562;-49
2022/02/22 06:42:52;;;;;;;7.00;3.43;;;6.40;72.80;;;;;;5053726;28;20462;-49
2022/02/22 06:45:19;;;;;;;7.23;2.40;;;6.40;72.60;;;;;;5058221;28;20465;-49
2022/02/22 06:47:45;;;;;;;8.40;2.90;;;6.40;72.80;;;;;;5037401;28;20474;-49
2022/02/22 06:50:13;;;;;;;6.87;2.27;;;6.40;72.40;;;;;;5052014;28;20540;-49
2022/02/22 06:52:41;;;;;;;6.03;2.30;;;6.40;72.60;;;;;;5040047;28;22010;-49
2022/02/22 06:55:09;;;;;;;12.50;2.57;;;6.40;72.60;;;;;;5043790;28;20687;-49
2022/02/22 06:57:37;;;;;;;4.63;2.10;;;6.40;72.80;;;;;;5052612;28;20450;-49
2022/02/22 07:00:09;;;;;;;8.73;2.63;;;6.40;72.30;;;;;;5053529;28;20449;-49
2022/02/22 07:02:41;;;;;;;6.93;3.20;;;6.40;72.30;;;;;;5056593;28;20489;-49
2022/02/22 07:05:08;;;;;;;7.80;2.50;;;6.50;72.40;;;;;;5036538;28;20449;-49
2022/02/22 07:07:36;;;;;;;5.37;2.27;;;6.50;72.60;;;;;;5055612;28;20458;-49
2022/02/22 07:10:05;;;;;;;7.20;2.90;;;6.50;72.70;;;;;;5056838;28;20470;-49
2022/02/22 07:12:34;;;;;;;7.47;2.70;;;6.50;72.40;;;;;;5050963;28;20513;-49
2022/02/22 07:15:02;;;;;;;11.13;3.20;;;6.50;72.30;;;;;;5050634;28;20464;-49
2022/02/22 07:17:28;;;;;;;10.40;3.37;;;6.50;72.60;;;;;;5055397;28;20545;-49
2022/02/22 07:19:55;;;;;;;11.73;3.00;;;6.50;72.80;;;;;;5041762;28;20452;-49
2022/02/22 07:22:22;;;;;;;5.70;3.00;;;6.50;73.20;;;;;;5057240;28;21086;-49
2022/02/22 07:24:49;;;;;;;12.80;5.10;;;6.60;73.20;;;;;;5063401;28;20879;-49
2022/02/22 07:27:16;;;;;;;13.63;3.10;;;6.60;73.20;;;;;;5062121;28;20475;-49
2022/02/22 07:29:43;;;;;;;8.90;3.67;;;6.60;73.40;;;;;;5058820;28;20458;-49
2022/02/22 07:32:10;;;;;;;14.43;3.13;;;6.60;73.20;;;;;;5058745;28;20490;-49
2022/02/22 07:34:37;;;;;;;8.23;2.30;;;6.60;73.50;;;;;;5042341;28;20495;-49
2022/02/22 07:37:04;;;;;;;8.73;2.43;;;6.60;73.40;;;;;;5058386;28;20457;-49
2022/02/22 07:39:31;;;;;;;5.67;2.57;;;6.60;73.30;;;;;;5058135;28;20549;-49
2022/02/22 07:41:57;;;;;;;8.50;2.77;;;6.60;73.40;;;;;;5058469;28;20462;-49
2022/02/22 07:44:24;;;;;;;6.50;2.70;;;6.60;73.60;;;;;;5027433;28;20462;-49
2022/02/22 07:46:51;;;;;;;7.63;2.60;;;6.60;73.60;;;;;;5054286;28;21007;-49
2022/02/22 07:49:18;;;;;;;7.47;2.43;;;6.70;74.00;;;;;;5059839;28;20566;-49
2022/02/22 07:51:45;;;;;;;8.50;2.00;;;6.70;74.10;;;;;;5047133;28;20492;-48
2022/02/22 07:54:12;;;;;;;5.70;3.07;;;6.80;73.70;;;;;;5067476;28;20468;-49
2022/02/22 07:56:38;;;;;;;8.43;2.30;;;6.80;73.70;;;;;;5066279;28;20455;-49
2022/02/22 07:59:05;;;;;;;7.40;2.30;;;6.90;73.60;;;;;;5042936;28;20493;-49
2022/02/22 08:01:32;;;;;;;11.50;3.30;;;6.90;73.80;;;;;;5043716;28;20482;-49
2022/02/22 08:03:59;;;;;;;11.27;2.80;;;6.90;73.50;;;;;;5062085;28;20461;-49
2022/02/22 08:06:26;;;;;;;13.60;4.37;;;6.90;73.40;;;;;;5041100;28;20562;-49
2022/02/22 08:08:54;;;;;;;7.43;2.27;;;6.90;73.60;;;;;;5061321;28;21648;-48
2022/02/22 08:11:21;;;;;;;7.80;3.00;;;6.90;73.40;;;;;;5062596;28;20488;-49
2022/02/22 08:13:49;;;;;;;7.57;2.90;;;6.90;73.20;;;;;;5058946;28;20543;-49
2022/02/22 08:16:16;;;;;;;10.90;3.43;;;6.90;72.90;;;;;;5057188;28;20962;-49
2022/02/22 08:18:43;;;;;;;12.03;3.90;;;6.90;73.20;;;;;;5054963;28;20515;-49
2022/02/22 08:21:10;;;;;;;4.73;2.57;;;6.90;73.50;;;;;;5054558;28;20493;-49
2022/02/22 08:23:37;;;;;;;3.87;2.70;;;6.90;73.70;;;;;;5059517;28;20557;-49
2022/02/22 08:26:05;;;;;;;7.70;2.20;;;6.90;73.70;;;;;;5059110;28;20462;-49
2022/02/22 08:28:32;;;;;;;8.87;2.30;;;7.00;73.80;;;;;;5059999;28;20516;-49
2022/02/22 08:30:59;;;;;;;8.90;2.43;;;7.10;73.90;;;;;;5055994;28;20470;-49
2022/02/22 08:33:26;;;;;;;12.70;3.30;;;7.10;73.50;;;;;;5059295;28;20457;-49
2022/02/22 08:35:55;;;;;;;12.37;2.90;;;7.20;73.60;;;;;;5042533;28;20454;-49
2022/02/22 08:38:22;;;;;;;8.03;2.90;;;7.30;73.40;;;;;;5045694;28;20453;-49
2022/02/22 08:40:49;;;;;;;14.33;2.63;;;7.40;73.10;;;;;;5061131;28;20464;-49
2022/02/22 08:43:17;;;;;;;11.33;2.90;;;7.50;72.80;;;;;;5059269;28;20457;-49
2022/02/22 08:45:46;;;;;;;7.37;2.87;;;7.50;72.70;;;;;;5041009;28;20464;-49
2022/02/22 08:48:14;;;;;;;7.57;3.40;;;7.60;72.40;;;;;;5040684;28;20460;-49
2022/02/22 08:50:42;;;;;;;11.90;3.33;;;7.70;72.50;;;;;;5057708;28;20641;-49
2022/02/22 08:53:09;;;;;;;10.43;3.77;;;7.80;72.10;;;;;;5061315;28;20580;-49
2022/02/22 08:55:36;;;;;;;6.40;4.40;;;7.90;71.90;;;;;;5059372;28;20462;-49
2022/02/22 08:58:03;;;;;;;6.93;3.83;;;8.00;71.80;;;;;;5061512;28;21483;-49
2022/02/22 09:00:35;;;;;;;11.20;3.03;;;8.00;71.80;;;;;;5062806;28;20446;-49
2022/02/22 09:03:03;;;;;;;9.03;2.80;;;8.10;71.10;;;;;;5061897;28;20545;-49
2022/02/22 09:05:32;;;;;;;8.10;3.00;;;8.20;70.10;;;;;;5057681;28;20941;-49
2022/02/22 09:07:59;;;;;;;7.53;3.00;;;8.20;70.10;;;;;;5047402;28;20969;-49
2022/02/22 09:10:27;;;;;;;13.03;4.50;;;8.20;70.20;;;;;;5060721;28;20547;-50
2022/02/22 09:12:54;;;;;;;6.13;2.97;;;8.20;70.00;;;;;;5061394;28;20487;-49
2022/02/22 09:15:24;;;;;;;9.33;2.90;;;8.20;70.20;;;;;;5057993;28;20607;-49
2022/02/22 09:17:51;;;;;;;7.70;2.60;;;8.20;70.10;;;;;;5059899;28;20461;-49
2022/02/22 09:20:20;;;;;;;8.80;3.37;;;8.30;70.30;;;;;;5057195;28;20457;-49
2022/02/22 09:22:47;;;;;;;6.37;2.10;;;8.30;70.50;;;;;;5056631;28;20980;-49
2022/02/22 09:25:15;;;;;;;9.07;2.80;;;8.40;70.60;;;;;;5039347;28;20820;-49
2022/02/22 09:27:43;;;;;;;4.70;2.60;;;8.50;70.90;;;;;;5053013;28;20462;-49
2022/02/22 09:30:14;;;;;;;8.50;2.87;;;8.60;70.70;;;;;;5059777;28;20462;-49
2022/02/22 09:32:47;;;;;;;6.70;2.57;;;8.70;70.00;;;;;;5041846;28;21273;-49
2022/02/22 09:35:18;;;;;;;6.80;2.77;;;8.80;69.40;;;;;;5031721;28;20453;-49
2022/02/22 09:37:46;;;;;;;6.20;3.17;;;8.90;69.60;;;;;;5056714;28;20540;-49
2022/02/22 09:40:14;;;;;;;7.37;3.03;;;8.90;69.00;;;;;;5058039;28;20484;-49
2022/02/22 09:42:43;;;;;;;6.20;2.37;;;8.90;69.00;;;;;;5057198;28;20473;-49
2022/02/22 09:45:13;;;;;;;6.33;3.03;;;9.00;69.20;;;;;;5059037;28;20451;-49
2022/02/22 09:47:42;;;;;;;6.60;2.33;;;9.00;69.40;;;;;;5040612;28;21057;-49
2022/02/22 09:50:10;;;;;;;8.40;2.63;;;9.10;68.40;;;;;;5058410;28;20468;-49
2022/02/22 09:52:38;;;;;;;6.70;2.77;;;9.10;68.40;;;;;;5059636;28;20566;-49
2022/02/22 09:55:07;;;;;;;7.93;2.40;;;9.20;68.50;;;;;;5057486;28;20458;-50
2022/02/22 09:57:35;;;;;;;9.40;2.07;;;9.20;68.40;;;;;;5054508;28;20453;-49
2022/02/22 10:00:05;;;;;;;6.27;2.03;;;9.30;68.20;;;;;;5062101;28;20484;-49
2022/02/22 10:02:38;;;;;;;5.77;2.63;;;9.30;68.70;;;;;;5059247;28;20872;-49
2022/02/22 10:05:16;;;;;;;3.40;1.60;;;9.30;68.40;;;;;;5043314;28;20461;-49
2022/02/22 10:07:45;;;;;;;4.77;2.00;;;9.40;67.80;;;;;;5058565;28;21769;-49
2022/02/22 10:10:12;;;;;;;5.10;1.83;;;9.40;67.80;;;;;;5042035;28;20488;-50
2022/02/22 10:12:39;;;;;;;7.73;2.47;;;9.50;68.10;;;;;;5057844;28;21171;-49
2022/02/22 10:15:08;;;;;;;6.57;1.90;;;9.50;68.30;;;;;;5043452;28;20985;-50
2022/02/22 10:17:40;;;;;;;7.93;3.10;;;9.60;68.20;;;;;;5053720;28;21030;-49
2022/02/22 10:20:10;;;;;;;6.67;2.23;;;9.60;68.20;;;;;;5060164;28;20545;-50
2022/02/22 10:22:46;;;;;;;5.67;2.70;;;9.60;67.00;;;;;;5055316;28;20565;-49
2022/02/22 10:25:14;;;;;;;5.33;2.03;;;9.60;67.10;;;;;;5042486;28;20540;-49
2022/02/22 10:27:50;;;;;;;5.20;2.23;;;9.60;67.60;;;;;;5056691;28;20467;-50
2022/02/22 10:30:25;;;;;;;3.10;1.70;;;9.70;67.20;;;;;;5061996;28;20472;-49
2022/02/22 10:32:52;;;;;;;6.50;1.90;;;9.70;67.00;;;;;;5060217;28;20717;-49
2022/02/22 10:35:33;;;;;;;5.40;2.00;;;9.70;66.40;;;;;;5056957;28;20469;-49
2022/02/22 10:38:11;;;;;;;3.57;1.83;;;9.70;66.70;;;;;;5026475;28;20458;-50
2022/02/22 10:40:41;;;;;;;5.93;2.00;;;9.70;66.20;;;;;;5054795;28;21094;-49
2022/02/22 10:43:18;;;;;;;5.70;2.40;;;9.80;66.60;;;;;;5056256;28;20517;-50
2022/02/22 10:45:53;;;;;;;3.03;1.43;;;9.80;66.60;;;;;;5056892;28;20469;-50
2022/02/22 10:48:44;;;;;;;4.63;1.77;;;9.80;66.70;;;;;;5043248;28;20461;-50
2022/02/22 10:51:14;;;;;;;10.73;3.13;;;9.90;67.30;;;;;;5060209;28;20457;-49
2022/02/22 10:53:47;;;;;;;5.47;2.00;;;10.00;66.40;;;;;;5058659;28;20480;-49
2022/02/22 10:56:17;;;;;;;3.67;2.17;;;10.20;66.70;;;;;;5061274;28;20777;-50
2022/02/22 10:58:48;;;;;;;7.50;1.90;;;10.30;66.30;;;;;;5054033;28;20523;-50
2022/02/22 11:01:19;;;;;;;8.23;2.20;;;10.40;65.30;;;;;;5049677;28;20470;-49
2022/02/22 11:03:46;;;;;;;3.80;1.57;;;10.40;64.40;;;;;;5037552;28;21196;-50
2022/02/22 11:06:14;;;;;;;4.93;2.10;;;10.40;64.50;;;;;;5052040;28;20888;-50
2022/02/22 11:08:46;;;;;;;6.37;1.93;;;10.40;65.20;;;;;;5059032;28;20494;-49
2022/02/22 11:11:41;;;;;;;6.10;2.30;;;10.40;64.10;;;;;;5055505;28;20453;-50
2022/02/22 11:14:30;;;;;;;8.27;1.60;;;10.40;65.20;;;;;;5057734;28;20518;-50
2022/02/22 11:17:14;;;;;;;6.00;2.10;;;10.30;64.80;;;;;;5062248;28;20572;-50
2022/02/22 11:19:45;;;;;;;2.50;1.63;;;10.40;64.60;;;;;;5061733;28;20450;-49
2022/02/22 11:22:12;;;;;;;7.00;2.33;;;10.50;64.10;;;;;;5058166;28;21041;-49
2022/02/22 11:24:59;;;;;;;3.83;2.20;;;10.50;65.00;;;;;;5057650;28;20954;-49
2022/02/22 11:27:27;;;;;;;10.23;2.50;;;10.50;64.50;;;;;;5039742;28;20516;-49
2022/02/22 11:30:04;;;;;;;5.93;2.60;;;10.50;63.70;;;;;;5054529;28;21017;-50
2022/02/22 11:32:57;;;;;;;3.87;2.10;;;10.40;64.00;;;;;;5057384;28;20490;-50
2022/02/22 11:35:26;;;;;;;4.17;2.30;;;10.40;64.80;;;;;;5056466;28;20457;-50
2022/02/22 11:38:08;;;;;;;6.00;2.60;;;10.40;65.20;;;;;;5054598;28;20944;-49
2022/02/22 11:40:38;;;;;;;4.63;3.00;;;10.40;65.70;;;;;;5037457;28;20490;-49
2022/02/22 11:43:14;;;;;;;6.67;2.60;;;10.40;65.50;;;;;;5056558;28;20474;-50
2022/02/22 11:45:46;;;;;;;4.30;2.87;;;10.40;65.90;;;;;;5049958;28;20493;-49
2022/02/22 11:48:22;;;;;;;6.10;2.40;;;10.40;66.60;;;;;;5056170;28;21978;-49
2022/02/22 11:50:53;;;;;;;5.27;2.20;;;10.40;65.60;;;;;;5055086;28;20450;-50
2022/02/22 11:53:29;;;;;;;8.57;2.20;;;10.40;66.10;;;;;;5032324;28;20870;-50
2022/02/22 11:55:58;;;;;;;8.73;3.53;;;10.40;66.10;;;;;;5036543;28;20462;-50
2022/02/22 11:58:28;;;;;;;6.33;3.83;;;10.40;66.50;;;;;;5053942;28;20492;-50
2022/02/22 12:01:00;;;;;;;6.43;2.20;;;10.40;66.50;;;;;;5040858;28;20488;-50
2022/02/22 12:03:28;;;;;;;4.13;1.50;;;10.30;67.30;;;;;;5043509;28;20501;-49
2022/02/22 12:06:00;;;;;;;7.13;2.50;;;10.30;67.10;;;;;;5057954;28;20479;-50
2022/02/22 12:08:38;;;;;;;8.10;2.80;;;10.30;67.40;;;;;;5036174;28;20487;-50
2022/02/22 12:11:14;;;;;;;3.87;2.27;;;10.30;67.40;;;;;;5058071;28;20551;-50
2022/02/22 12:13:46;;;;;;;6.03;2.50;;;10.20;67.50;;;;;;5057902;28;20510;-50
2022/02/22 12:16:18;;;;;;;4.50;2.60;;;10.20;67.50;;;;;;5059043;28;20455;-50
2022/02/22 12:18:48;;;;;;;4.07;2.53;;;10.20;67.90;;;;;;5061310;28;21122;-50
2022/02/22 12:21:18;;;;;;;5.33;2.50;;;10.20;67.60;;;;;;5057011;28;20458;-49
2022/02/22 12:23:49;;;;;;;12.33;3.77;;;10.20;67.70;;;;;;5058915;28;20985;-50
2022/02/22 12:26:18;;;;;;;5.57;2.30;;;10.20;67.70;;;;;;5043139;28;20589;-50
2022/02/22 12:28:47;;;;;;;5.63;2.53;;;10.20;67.90;;;;;;5057802;28;20870;-49
2022/02/22 12:31:25;;;;;;;5.40;3.23;;;10.20;68.00;;;;;;5059831;28;20457;-49
2022/02/22 12:33:57;;;;;;;5.73;2.53;;;10.20;68.40;;;;;;5059966;28;20481;-50
2022/02/22 12:36:26;;;;;;;4.93;2.40;;;10.20;68.50;;;;;;5055681;28;20468;-50
2022/02/22 12:39:06;;;;;;;14.80;3.10;;;10.20;68.60;;;;;;5058234;28;20568;-49
2022/02/22 12:41:35;;;;;;;8.33;2.90;;;10.20;68.20;;;;;;5056162;28;20461;-49
2022/02/22 12:44:07;;;;;;;7.23;2.27;;;10.30;68.40;;;;;;5058526;28;20522;-50
2022/02/22 12:46:34;;;;;;;4.70;2.20;;;10.30;68.50;;;;;;5056302;28;20473;-50
2022/02/22 12:49:10;;;;;;;7.67;3.17;;;10.30;67.90;;;;;;5059460;28;20455;-49
2022/02/22 12:51:38;;;;;;;5.50;3.30;;;10.30;67.60;;;;;;5041908;28;20992;-50
2022/02/22 12:54:09;;;;;;;9.93;2.70;;;10.40;67.90;;;;;;5057805;28;20570;-50
2022/02/22 12:56:40;;;;;;;7.10;2.87;;;10.40;68.20;;;;;;5059033;28;20454;-49
2022/02/22 12:59:10;;;;;;;6.43;2.57;;;10.30;69.30;;;;;;5055627;28;20485;-49